createdAt,value
2024-01-06T00:00:01.060Z,79.50
2024-01-06T00:02:28.415Z,79.60
2024-01-06T00:04:57.025Z,79.40
2024-01-06T00:07:24.297Z,79.50
2024-01-06T00:09:51.720Z,79.50
2024-01-06T00:12:19.839Z,79.10
2024-01-06T00:14:47.206Z,79.30
2024-01-06T00:17:14.533Z,79.50
2024-01-06T00:19:42.036Z,79.60
2024-01-06T00:22:10.705Z,79.70
2024-01-06T00:24:38.026Z,79.70
2024-01-06T00:27:05.669Z,79.50
2024-01-06T00:29:33.002Z,79.70
2024-01-06T00:32:00.269Z,79.40
2024-01-06T00:34:27.653Z,79.40
2024-01-06T00:36:55.124Z,79.50
2024-01-06T00:39:23.773Z,79.50
2024-01-06T00:41:51.269Z,79.10
2024-01-06T00:44:18.711Z,79.10
2024-01-06T00:46:46.295Z,79.00
2024-01-06T00:49:13.632Z,79.20
2024-01-06T00:51:41.119Z,79.40
2024-01-06T00:54:08.505Z,79.10
2024-01-06T00:56:37.220Z,79.20
2024-01-06T00:59:04.493Z,79.20
2024-01-06T01:01:33.230Z,79.10
2024-01-06T01:04:00.760Z,78.80
2024-01-06T01:06:28.165Z,78.90
2024-01-06T01:08:55.842Z,78.60
2024-01-06T01:11:23.222Z,78.60
2024-01-06T01:13:51.883Z,78.90
2024-01-06T01:16:19.171Z,78.60
2024-01-06T01:18:46.704Z,78.60
2024-01-06T01:21:14.124Z,78.70
2024-01-06T01:23:41.497Z,78.70
2024-01-06T01:26:08.815Z,78.50
2024-01-06T01:28:36.581Z,78.50
2024-01-06T01:31:05.582Z,78.70
2024-01-06T01:33:33.257Z,78.70
2024-01-06T01:36:02.878Z,78.80
2024-01-06T01:38:30.572Z,79.00
2024-01-06T01:40:57.858Z,79.00
2024-01-06T01:43:25.154Z,78.80
2024-01-06T01:45:54.911Z,78.70
2024-01-06T01:48:24.589Z,78.80
2024-01-06T01:50:53.820Z,78.80
2024-01-06T01:53:21.508Z,78.60
2024-01-06T01:55:49.370Z,78.40
2024-01-06T01:58:17.518Z,78.50
2024-01-06T02:00:45.029Z,78.50
2024-01-06T02:03:14.017Z,78.50
2024-01-06T02:05:42.740Z,78.30
2024-01-06T02:08:10.259Z,78.30
2024-01-06T02:10:37.578Z,78.40
2024-01-06T02:13:10.234Z,78.50
2024-01-06T02:15:38.368Z,78.50
2024-01-06T02:18:06.485Z,78.50
2024-01-06T02:20:34.194Z,78.60
2024-01-06T02:23:02.798Z,78.40
2024-01-06T02:25:30.432Z,78.50
2024-01-06T02:27:58.180Z,78.40
2024-01-06T02:30:25.785Z,78.60
2024-01-06T02:32:53.470Z,78.50
2024-01-06T02:35:22.011Z,78.50
2024-01-06T02:37:49.454Z,78.70
2024-01-06T02:40:18.167Z,78.40
2024-01-06T02:42:45.467Z,78.50
2024-01-06T02:45:12.834Z,78.20
2024-01-06T02:47:40.277Z,78.10
2024-01-06T02:50:08.668Z,78.30
2024-01-06T02:52:36.066Z,78.30
2024-01-06T02:55:03.760Z,78.30
2024-01-06T02:57:32.476Z,78.40
2024-01-06T02:59:59.860Z,78.50
2024-01-06T03:02:27.176Z,78.10
2024-01-06T03:04:54.527Z,78.30
2024-01-06T03:07:21.896Z,78.30
2024-01-06T03:09:49.270Z,78.60
2024-01-06T03:12:16.735Z,78.50
2024-01-06T03:14:45.350Z,78.40
2024-01-06T03:17:12.696Z,78.50
2024-01-06T03:19:40.339Z,78.40
2024-01-06T03:22:07.784Z,78.50
2024-01-06T03:24:35.087Z,78.40
2024-01-06T03:27:02.416Z,78.40
2024-01-06T03:29:29.776Z,78.20
2024-01-06T03:31:58.834Z,78.40
2024-01-06T03:34:26.188Z,78.20
2024-01-06T03:36:53.586Z,78.10
2024-01-06T03:39:20.868Z,77.90
2024-01-06T03:41:49.197Z,78.10
2024-01-06T03:44:16.636Z,78.00
2024-01-06T03:46:43.949Z,78.30
2024-01-06T03:49:12.713Z,78.40
2024-01-06T03:51:40.136Z,78.40
2024-01-06T03:54:07.478Z,78.30
2024-01-06T03:56:34.751Z,78.30
2024-01-06T03:59:02.075Z,78.50
2024-01-06T04:01:30.106Z,78.30
2024-01-06T04:03:57.562Z,78.40
2024-01-06T04:06:26.257Z,78.50
2024-01-06T04:08:56.088Z,78.30
2024-01-06T04:11:23.378Z,78.40
2024-01-06T04:13:50.752Z,78.40
2024-01-06T04:16:18.131Z,78.20
2024-01-06T04:18:45.527Z,78.40
2024-01-06T04:21:13.058Z,78.40
2024-01-06T04:23:41.670Z,78.40
2024-01-06T04:26:09.061Z,78.00
2024-01-06T04:28:36.346Z,78.50
2024-01-06T04:31:04.124Z,78.30
2024-01-06T04:33:32.461Z,78.60
2024-01-06T04:36:00.239Z,78.60
2024-01-06T04:38:27.532Z,78.60
2024-01-06T04:40:56.240Z,78.50
2024-01-06T04:43:23.575Z,78.50
2024-01-06T04:45:51.629Z,78.50
2024-01-06T04:48:19.166Z,78.50
2024-01-06T04:50:46.603Z,78.40
2024-01-06T04:53:13.937Z,78.50
2024-01-06T04:55:41.281Z,78.40
2024-01-06T04:58:09.901Z,78.30
2024-01-06T05:00:37.518Z,78.30
2024-01-06T05:03:05.268Z,78.40
2024-01-06T05:05:32.682Z,78.20
2024-01-06T05:08:00.822Z,78.40
2024-01-06T05:10:28.116Z,78.20
2024-01-06T05:12:55.514Z,78.60
2024-01-06T05:15:24.211Z,78.60
2024-01-06T05:17:51.670Z,78.40
2024-01-06T05:20:19.081Z,78.50
2024-01-06T05:22:46.437Z,78.60
2024-01-06T05:25:13.825Z,78.40
2024-01-06T05:27:41.226Z,78.70
2024-01-06T05:30:09.782Z,78.50
2024-01-06T05:32:39.734Z,78.60
2024-01-06T05:35:08.511Z,78.90
2024-01-06T05:37:35.967Z,78.80
2024-01-06T05:40:05.101Z,79.00
2024-01-06T05:42:32.533Z,79.00
2024-01-06T05:44:59.873Z,78.70
2024-01-06T05:47:27.388Z,78.70
2024-01-06T05:49:56.136Z,78.80
2024-01-06T05:52:23.443Z,78.60
2024-01-06T05:54:50.744Z,78.80
2024-01-06T05:57:19.129Z,78.70
2024-01-06T05:59:46.668Z,78.60
2024-01-06T06:02:14.768Z,78.50
2024-01-06T06:04:42.202Z,78.40
2024-01-06T06:07:10.893Z,78.80
2024-01-06T06:09:40.877Z,78.80
2024-01-06T06:12:08.644Z,78.70
2024-01-06T06:14:35.933Z,78.60
2024-01-06T06:17:03.638Z,78.60
2024-01-06T06:19:31.095Z,79.00
2024-01-06T06:21:58.565Z,78.80
2024-01-06T06:24:27.294Z,78.90
2024-01-06T06:26:54.621Z,79.20
2024-01-06T06:29:22.071Z,79.10
2024-01-06T06:31:49.882Z,79.10
2024-01-06T06:34:17.596Z,78.70
2024-01-06T06:36:45.040Z,79.20
2024-01-06T06:39:12.382Z,79.00
2024-01-06T06:41:41.009Z,79.00
2024-01-06T06:44:08.295Z,78.90
2024-01-06T06:46:35.634Z,78.90
2024-01-06T06:49:03.591Z,78.70
2024-01-06T06:51:31.539Z,79.00
2024-01-06T06:53:59.720Z,78.60
2024-01-06T06:56:27.035Z,78.90
2024-01-06T06:58:55.824Z,78.70
2024-01-06T07:01:23.201Z,79.20
2024-01-06T07:03:50.560Z,79.00
2024-01-06T07:06:17.870Z,79.10
2024-01-06T07:08:45.180Z,78.90
2024-01-06T07:11:12.937Z,78.80
2024-01-06T07:13:40.624Z,79.10
2024-01-06T07:16:17.903Z,79.10
2024-01-06T07:18:47.409Z,79.00
2024-01-06T07:21:15.175Z,78.90
2024-01-06T07:23:43.652Z,79.30
2024-01-06T07:26:11.034Z,79.20
2024-01-06T07:28:38.595Z,79.20
2024-01-06T07:31:06.641Z,79.00
2024-01-06T07:33:35.591Z,79.20
2024-01-06T07:36:03.118Z,79.10
2024-01-06T07:38:32.239Z,79.50
2024-01-06T07:40:59.673Z,79.20
2024-01-06T07:43:27.108Z,79.30
2024-01-06T07:45:55.028Z,79.10
2024-01-06T07:48:22.753Z,79.10
2024-01-06T07:50:51.639Z,79.30
2024-01-06T07:53:19.329Z,79.20
2024-01-06T07:55:46.610Z,79.30
2024-01-06T07:58:13.938Z,79.40
2024-01-06T08:00:41.463Z,79.30
2024-01-06T08:03:08.829Z,79.40
2024-01-06T08:05:36.406Z,79.30
2024-01-06T08:08:05.776Z,79.60
2024-01-06T08:10:33.057Z,79.30
2024-01-06T08:13:00.554Z,79.40
2024-01-06T08:15:27.964Z,79.80
2024-01-06T08:17:55.434Z,80.00
2024-01-06T08:20:23.052Z,80.80
2024-01-06T08:22:50.397Z,80.40
2024-01-06T08:25:19.105Z,80.00
2024-01-06T08:27:46.489Z,79.80
2024-01-06T08:30:14.153Z,79.80
2024-01-06T08:32:41.947Z,79.70
2024-01-06T08:35:10.531Z,80.10
2024-01-06T08:37:37.817Z,79.80
2024-01-06T08:40:07.021Z,79.50
2024-01-06T08:42:35.749Z,79.40
2024-01-06T08:45:03.676Z,79.30
2024-01-06T08:47:31.086Z,79.30
2024-01-06T08:49:58.467Z,78.90
2024-01-06T08:52:25.943Z,79.00
2024-01-06T08:54:53.315Z,79.20
2024-01-06T08:57:20.684Z,79.10
2024-01-06T08:59:49.294Z,79.00
2024-01-06T09:02:16.583Z,79.10
2024-01-06T09:04:43.849Z,78.90
2024-01-06T09:07:11.816Z,79.10
2024-01-06T09:09:39.163Z,79.00
2024-01-06T09:12:07.116Z,78.90
2024-01-06T09:14:34.394Z,79.10
2024-01-06T09:17:02.989Z,78.90
2024-01-06T09:19:31.736Z,78.80
2024-01-06T09:21:59.231Z,78.80
2024-01-06T09:24:26.636Z,78.90
2024-01-06T09:26:53.975Z,78.50
2024-01-06T09:29:21.291Z,78.50
2024-01-06T09:31:48.601Z,78.90
2024-01-06T09:34:17.371Z,78.90
2024-01-06T09:36:44.744Z,78.90
2024-01-06T09:39:12.028Z,78.80
2024-01-06T09:41:39.372Z,78.70
2024-01-06T09:44:07.407Z,78.80
2024-01-06T09:46:36.944Z,78.90
2024-01-06T09:49:04.396Z,78.70
2024-01-06T09:51:36.226Z,78.50
2024-01-06T09:54:09.060Z,78.70
2024-01-06T09:56:36.451Z,78.70
2024-01-06T09:59:04.086Z,78.70
2024-01-06T10:01:31.425Z,78.40
2024-01-06T10:03:58.779Z,78.30
2024-01-06T10:06:26.429Z,78.10
2024-01-06T10:08:55.053Z,78.00
2024-01-06T10:11:23.844Z,78.10
2024-01-06T10:13:51.925Z,77.90
2024-01-06T10:16:19.982Z,78.10
2024-01-06T10:18:52.432Z,78.10
2024-01-06T10:21:23.188Z,78.30
2024-01-06T10:23:51.965Z,78.30
2024-01-06T10:26:20.593Z,78.10
2024-01-06T10:28:49.354Z,78.20
2024-01-06T10:31:16.872Z,78.40
2024-01-06T10:33:44.545Z,78.50
2024-01-06T10:36:11.994Z,78.10
2024-01-06T10:38:41.129Z,78.30
2024-01-06T10:41:09.031Z,77.80
2024-01-06T10:43:45.149Z,78.00
2024-01-06T10:46:13.684Z,77.80
2024-01-06T10:48:45.502Z,77.90
2024-01-06T10:51:14.920Z,78.00
2024-01-06T10:53:43.836Z,78.00
2024-01-06T10:56:12.156Z,77.80
2024-01-06T10:58:46.049Z,77.90
2024-01-06T11:01:15.645Z,77.50
2024-01-06T11:03:46.608Z,77.60
2024-01-06T11:06:14.398Z,77.80
2024-01-06T11:08:50.592Z,77.20
2024-01-06T11:11:19.178Z,77.50
2024-01-06T11:13:49.015Z,77.50
2024-01-06T11:16:34.542Z,77.20
2024-01-06T11:19:02.305Z,77.20
2024-01-06T11:21:34.715Z,77.30
2024-01-06T11:24:24.076Z,77.30
2024-01-06T11:26:52.553Z,77.20
2024-01-06T11:29:21.431Z,77.10
2024-01-06T11:32:26.749Z,77.00
2024-01-06T11:34:56.330Z,77.30
2024-01-06T11:37:35.134Z,77.10
2024-01-06T11:40:02.476Z,77.20
2024-01-06T11:42:33.422Z,77.00
2024-01-06T11:45:06.519Z,77.20
2024-01-06T11:47:34.199Z,77.20
2024-01-06T11:50:06.005Z,76.80
2024-01-06T11:52:33.540Z,77.00
2024-01-06T11:55:02.222Z,76.90
2024-01-06T11:57:30.647Z,76.80
2024-01-06T11:59:57.976Z,76.90
2024-01-06T12:02:27.003Z,77.10
2024-01-06T12:04:54.796Z,77.00
2024-01-06T12:07:25.689Z,77.10
2024-01-06T12:10:03.040Z,77.10
2024-01-06T12:12:30.757Z,76.90
2024-01-06T12:14:58.143Z,76.50
2024-01-06T12:17:30.618Z,76.40
2024-01-06T12:19:58.231Z,76.20
2024-01-06T12:22:25.593Z,76.60
2024-01-06T12:24:52.861Z,76.80
2024-01-06T12:27:22.708Z,76.40
2024-01-06T12:29:50.289Z,76.30
2024-01-06T12:32:19.273Z,76.60
2024-01-06T12:34:48.669Z,76.20
2024-01-06T12:37:16.127Z,76.40
2024-01-06T12:39:46.255Z,76.60
2024-01-06T12:42:17.657Z,76.70
2024-01-06T12:44:45.152Z,76.50
2024-01-06T12:47:13.278Z,76.40
2024-01-06T12:49:40.616Z,76.30
2024-01-06T12:52:09.240Z,75.90
2024-01-06T12:54:36.524Z,76.20
2024-01-06T12:57:04.203Z,76.10
2024-01-06T12:59:31.528Z,76.00
2024-01-06T13:01:58.866Z,76.00
2024-01-06T13:04:26.248Z,75.60
2024-01-06T13:06:53.711Z,75.90
2024-01-06T13:09:24.617Z,76.00
2024-01-06T13:11:52.404Z,76.10
2024-01-06T13:14:19.740Z,75.70
2024-01-06T13:16:47.049Z,75.80
2024-01-06T13:19:14.520Z,75.80
2024-01-06T13:21:41.954Z,75.50
2024-01-06T13:24:09.284Z,75.10
2024-01-06T13:26:37.890Z,75.30
2024-01-06T13:29:05.390Z,75.30
2024-01-06T13:31:33.742Z,75.40
2024-01-06T13:34:06.664Z,75.10
2024-01-06T13:36:38.313Z,75.50
2024-01-06T13:39:06.433Z,75.50
2024-01-06T13:41:33.896Z,75.60
2024-01-06T13:44:02.632Z,75.40
2024-01-06T13:46:29.902Z,75.30
2024-01-06T13:48:57.287Z,75.30
2024-01-06T13:51:26.049Z,75.30
2024-01-06T13:53:53.456Z,75.10
2024-01-06T13:56:20.823Z,75.20
2024-01-06T13:58:48.558Z,75.20
2024-01-06T14:01:17.273Z,75.40
2024-01-06T14:03:44.739Z,75.30
2024-01-06T14:06:12.309Z,75.10
2024-01-06T14:08:40.501Z,75.30
2024-01-06T14:11:07.811Z,75.40
2024-01-06T14:13:35.084Z,75.50
2024-01-06T14:16:02.627Z,75.60
2024-01-06T14:18:32.027Z,75.50
2024-01-06T14:20:59.849Z,75.30
2024-01-06T14:23:28.673Z,75.20
2024-01-06T14:25:55.978Z,75.40
2024-01-06T14:28:23.257Z,75.30
2024-01-06T14:30:50.714Z,75.20
2024-01-06T14:33:20.119Z,75.50
2024-01-06T14:35:49.028Z,75.40
2024-01-06T14:38:16.374Z,75.20
2024-01-06T14:40:43.911Z,75.10
2024-01-06T14:43:11.661Z,75.20
2024-01-06T14:45:39.347Z,75.10
2024-01-06T14:48:07.418Z,75.20
2024-01-06T14:50:34.766Z,75.20
2024-01-06T14:53:04.080Z,75.30
2024-01-06T14:55:31.384Z,75.10
2024-01-06T14:57:58.778Z,75.00
2024-01-06T15:00:26.396Z,75.20
2024-01-06T15:02:53.718Z,75.00
2024-01-06T15:05:21.281Z,74.70
2024-01-06T15:07:48.625Z,75.10
2024-01-06T15:10:17.483Z,74.90
2024-01-06T15:12:44.782Z,74.80
2024-01-06T15:15:12.207Z,74.80
2024-01-06T15:17:39.537Z,74.50
2024-01-06T15:20:08.500Z,74.90
2024-01-06T15:22:38.252Z,75.00
2024-01-06T15:25:08.746Z,74.40
2024-01-06T15:27:37.471Z,74.20
2024-01-06T15:30:09.806Z,74.30
2024-01-06T15:32:38.378Z,74.50
2024-01-06T15:35:07.500Z,74.80
2024-01-06T15:37:34.929Z,74.90
2024-01-06T15:40:02.354Z,75.20
2024-01-06T15:42:29.834Z,75.20
2024-01-06T15:44:58.483Z,74.80
2024-01-06T15:47:25.870Z,74.90
2024-01-06T15:49:53.663Z,74.80
2024-01-06T15:52:22.796Z,74.70
2024-01-06T15:54:50.680Z,74.30
2024-01-06T15:57:18.223Z,74.40
2024-01-06T15:59:45.936Z,74.30
2024-01-06T16:02:14.708Z,74.30
2024-01-06T16:04:42.104Z,74.20
2024-01-06T16:07:10.493Z,74.10
2024-01-06T16:09:37.995Z,74.40
2024-01-06T16:12:07.275Z,74.30
2024-01-06T16:14:36.258Z,73.90
2024-01-06T16:17:04.886Z,73.90
2024-01-06T16:19:33.678Z,73.60
2024-01-06T16:22:14.280Z,73.60
2024-01-06T16:24:44.841Z,74.20
2024-01-06T16:27:12.250Z,73.50
2024-01-06T16:29:40.033Z,73.10
2024-01-06T16:32:08.002Z,73.50
2024-01-06T16:34:37.284Z,73.20
2024-01-06T16:37:05.048Z,73.10
2024-01-06T16:39:32.743Z,73.20
2024-01-06T16:42:01.430Z,72.70
2024-01-06T16:44:31.032Z,72.90
2024-01-06T16:47:00.159Z,73.00
2024-01-06T16:49:32.775Z,73.10
2024-01-06T16:52:01.816Z,73.00
2024-01-06T16:54:29.266Z,73.00
2024-01-06T16:57:00.838Z,72.60
2024-01-06T16:59:28.590Z,72.70
2024-01-06T17:01:56.127Z,72.80
2024-01-06T17:04:26.077Z,72.90
2024-01-06T17:06:55.396Z,72.70
2024-01-06T17:09:25.203Z,72.80
2024-01-06T17:11:55.349Z,72.80
2024-01-06T17:14:22.672Z,72.70
2024-01-06T17:16:50.026Z,72.60
2024-01-06T17:19:17.550Z,72.20
2024-01-06T17:21:47.340Z,72.30
2024-01-06T17:24:14.737Z,72.10
2024-01-06T17:26:43.577Z,71.50
2024-01-06T17:29:11.882Z,71.60
2024-01-06T17:31:39.486Z,71.90
2024-01-06T17:34:07.042Z,71.70
2024-01-06T17:36:34.956Z,71.80
2024-01-06T17:39:03.612Z,71.60
2024-01-06T17:41:35.276Z,71.00
2024-01-06T17:44:08.487Z,70.50
2024-01-06T17:46:38.805Z,70.30
2024-01-06T17:49:07.689Z,70.60
2024-01-06T17:51:35.896Z,70.90
2024-01-06T17:54:03.368Z,71.10
2024-01-06T17:56:30.674Z,71.00
2024-01-06T17:59:02.474Z,71.30
2024-01-06T18:01:31.325Z,71.20
2024-01-06T18:03:58.823Z,71.30
2024-01-06T18:06:26.765Z,71.70
2024-01-06T18:08:54.247Z,71.90
2024-01-06T18:11:21.537Z,71.90
2024-01-06T18:13:48.796Z,71.90
2024-01-06T18:16:19.058Z,72.10
2024-01-06T18:18:47.823Z,71.90
2024-01-06T18:21:15.434Z,71.50
2024-01-06T18:23:42.872Z,71.80
2024-01-06T18:26:10.197Z,71.30
2024-01-06T18:28:37.570Z,71.60
2024-01-06T18:31:05.006Z,71.10
2024-01-06T18:33:33.254Z,71.20
2024-01-06T18:36:02.083Z,71.20
2024-01-06T18:38:30.469Z,70.80
2024-01-06T18:40:59.662Z,70.90
2024-01-06T18:43:27.188Z,70.70
2024-01-06T18:45:54.995Z,71.00
2024-01-06T18:48:22.500Z,70.90
2024-01-06T18:50:49.924Z,70.50
2024-01-06T18:53:19.378Z,70.50
2024-01-06T18:55:46.656Z,70.90
2024-01-06T18:58:13.917Z,71.20
2024-01-06T19:00:42.035Z,71.00
2024-01-06T19:03:09.962Z,71.00
2024-01-06T19:05:37.424Z,71.00
2024-01-06T19:08:05.159Z,71.40
2024-01-06T19:10:36.399Z,71.30
2024-01-06T19:13:06.433Z,71.60
2024-01-06T19:15:33.897Z,71.40
2024-01-06T19:18:01.353Z,71.40
2024-01-06T19:20:28.616Z,71.40
2024-01-06T19:23:02.982Z,71.70
2024-01-06T19:25:37.855Z,71.60
2024-01-06T19:28:05.998Z,71.20
2024-01-06T19:30:33.486Z,71.30
2024-01-06T19:33:01.251Z,70.70
2024-01-06T19:35:28.639Z,70.90
2024-01-06T19:37:55.894Z,71.20
2024-01-06T19:40:23.178Z,70.80
2024-01-06T19:42:53.400Z,70.70
2024-01-06T19:45:20.783Z,70.60
2024-01-06T19:47:48.255Z,71.20
2024-01-06T19:50:15.693Z,71.30
2024-01-06T19:52:43.364Z,70.80
2024-01-06T19:55:11.387Z,70.50
2024-01-06T19:57:38.893Z,70.30
2024-01-06T20:00:09.091Z,70.00
2024-01-06T20:02:39.959Z,69.80
2024-01-06T20:05:08.069Z,69.90
2024-01-06T20:07:35.655Z,70.10
2024-01-06T20:10:03.364Z,70.30
2024-01-06T20:12:30.913Z,69.90
2024-01-06T20:14:58.650Z,69.70
2024-01-06T20:17:27.932Z,69.70
2024-01-06T20:19:55.279Z,69.40
2024-01-06T20:22:23.477Z,69.50
2024-01-06T20:24:50.968Z,69.50
2024-01-06T20:27:18.459Z,69.70
2024-01-06T20:29:45.774Z,69.80
2024-01-06T20:32:13.336Z,70.10
2024-01-06T20:34:45.564Z,70.30
2024-01-06T20:37:15.667Z,70.60
2024-01-06T20:39:42.989Z,70.80
2024-01-06T20:42:10.408Z,71.10
2024-01-06T20:44:37.690Z,71.10
2024-01-06T20:47:05.374Z,71.30
2024-01-06T20:49:32.758Z,71.70
2024-01-06T20:52:02.118Z,71.40
2024-01-06T20:54:29.710Z,70.70
2024-01-06T20:56:56.978Z,70.90
2024-01-06T20:59:24.652Z,70.70
2024-01-06T21:01:51.984Z,70.60
2024-01-06T21:04:19.325Z,70.30
2024-01-06T21:06:46.682Z,70.10
2024-01-06T21:09:15.306Z,70.60
2024-01-06T21:11:43.967Z,70.60
2024-01-06T21:14:11.230Z,70.40
2024-01-06T21:16:39.820Z,69.70
2024-01-06T21:19:07.194Z,69.80
2024-01-06T21:21:34.544Z,69.50
2024-01-06T21:24:01.950Z,69.90
2024-01-06T21:26:32.383Z,69.70
2024-01-06T21:28:59.693Z,69.10
2024-01-06T21:31:28.811Z,68.50
2024-01-06T21:33:56.441Z,68.70
2024-01-06T21:36:24.047Z,68.20
2024-01-06T21:38:51.326Z,68.30
2024-01-06T21:41:18.678Z,67.90
2024-01-06T21:43:47.291Z,67.50
2024-01-06T21:46:14.639Z,67.20
2024-01-06T21:48:42.159Z,67.00
2024-01-06T21:51:09.701Z,67.00
2024-01-06T21:53:37.003Z,67.20
2024-01-06T21:56:04.877Z,66.30
2024-01-06T21:58:32.157Z,66.50
2024-01-06T22:01:00.888Z,66.30
2024-01-06T22:03:28.259Z,66.40
2024-01-06T22:05:55.687Z,66.90
2024-01-06T22:08:22.979Z,67.00
2024-01-06T22:10:50.319Z,66.80
2024-01-06T22:13:17.601Z,65.90
2024-01-06T22:15:45.055Z,66.00
2024-01-06T22:18:13.986Z,65.80
2024-01-06T22:20:41.445Z,65.20
2024-01-06T22:23:08.732Z,65.60
2024-01-06T22:25:36.055Z,65.80
2024-01-06T22:28:03.607Z,65.60
2024-01-06T22:30:31.158Z,65.60
2024-01-06T22:32:58.515Z,65.90
2024-01-06T22:35:27.161Z,65.50
2024-01-06T22:37:54.402Z,65.00
2024-01-06T22:40:21.790Z,64.60
2024-01-06T22:42:49.330Z,65.00
2024-01-06T22:45:16.683Z,65.30
2024-01-06T22:47:44.007Z,65.20
2024-01-06T22:50:11.432Z,65.20
2024-01-06T22:52:40.134Z,65.00
2024-01-06T22:55:08.694Z,65.00
2024-01-06T22:57:37.910Z,64.80
2024-01-06T23:00:16.433Z,65.40
2024-01-06T23:02:45.074Z,64.90
2024-01-06T23:05:14.039Z,64.60
2024-01-06T23:07:42.816Z,65.30
2024-01-06T23:10:11.100Z,65.40
2024-01-06T23:12:38.608Z,65.50
2024-01-06T23:15:07.449Z,65.20
2024-01-06T23:17:34.974Z,65.00
2024-01-06T23:20:02.791Z,65.00
2024-01-06T23:22:30.179Z,65.10
2024-01-06T23:24:58.934Z,65.20
2024-01-06T23:27:27.325Z,65.30
2024-01-06T23:29:54.756Z,65.40
2024-01-06T23:32:22.690Z,65.40
2024-01-06T23:34:50.105Z,65.40
2024-01-06T23:37:17.676Z,65.50
2024-01-06T23:39:44.987Z,65.60
2024-01-06T23:42:15.051Z,65.70
2024-01-06T23:44:42.825Z,65.70
2024-01-06T23:47:10.146Z,65.90
2024-01-06T23:49:37.692Z,65.80
2024-01-06T23:52:05.753Z,65.20
2024-01-06T23:54:33.223Z,65.60
2024-01-06T23:57:00.563Z,65.90
2024-01-06T23:59:29.178Z,65.30
